Thunderstorms From: 22-05-2018 15:00 Until: 23-05-2018 15:00 warning for: Thunderstorms Level: Yellow info button

Although rather usual in this region, locally or potentially dangerous phenomena are expected. (such as local winds, summer thunderstorms, rising streams or high waves) Be aware and pay attention to the latest weather updates, especially if you carry out activities exposed to weather or close to a stream or shoreline. 


Meteo18 Weather Cam more information Meteo18 Weather Cam


warning for Thunderstorms more information blitzortung!


Rain radar more information rain snow radar


Visit our other weather sites:

Template documentation
and downloads

And another site



Weather Underground History page Text

Daily Summary for January 30, 2018 Units:  Both    English   Metric
« Previous Day
Next Day »
Daily Weekly Monthly Yearly Custom
  High: Low: Average:
Temperature: TemperatureC °F /  -17.8 °C 7.2 °F /  -13.8 °C 8.4 °F /  -13.1 °C
Dew Point: DewpointC °F /  -17.8 °C 6.9 °F /  -13.9 °C 7.6 °F /  -13.6 °C
Humidity: Humidity % 90 % 95 %
Wind Speed: WindSpeedKMH mph /  0 km/h - 2.3 mph /  3.7 km/h
Wind Gust: WindSpeedGustKMH mph /  0 km/h - -
Wind:- - WSW
Pressure: PressurehPa in /  0 hPa 1026.6 in /  34760.7 hPa -
Precipitation: 0.0 in /  0 mm    
Historical Graphs
 
 
Tabular Data for January 30, 2018
Time Temperature Dew Point Pressure Wind Wind Speed Wind Gust Humidity Rainfall Rate (Hourly)
TemperatureC °F /  -17.8 °C DewpointC °F /  -17.8 °C PressurehPa in /  0 hPa Calm     Humidity % HourlyPrecipMM in /  0 mm
00:03 7.9 °F /  -13.4 °C 7.3 °F /  -13.7 °C 1033.7 in /  35001.1 hPa West 3.2 mph /  5.1 km/h 4.8 mph /  7.7 km/h 96 % 0.0 in /  0 mm
00:09 7.9 °F /  -13.4 °C 7.5 °F /  -13.6 °C 1033.7 in /  35001.1 hPa Calm   1.6 mph /  2.6 km/h 97 % 0.0 in /  0 mm
00:15 8.0 °F /  -13.3 °C 7.6 °F /  -13.6 °C 1033.7 in /  35001.1 hPa West 1.4 mph /  2.3 km/h 1.6 mph /  2.6 km/h 97 % 0.0 in /  0 mm
00:21 8.1 °F /  -13.3 °C 7.5 °F /  -13.6 °C 1033.7 in /  35001.1 hPa Calm   3.2 mph /  5.1 km/h 96 % 0.0 in /  0 mm
00:27 8.1 °F /  -13.3 °C 7.5 °F /  -13.6 °C 1033.7 in /  35001.1 hPa WSW 1.4 mph /  2.3 km/h 1.6 mph /  2.6 km/h 96 % 0.0 in /  0 mm
00:33 8.2 °F /  -13.2 °C 7.6 °F /  -13.6 °C 1033.7 in /  35001.1 hPa WSW 1.4 mph /  2.3 km/h 1.6 mph /  2.6 km/h 96 % 0.0 in /  0 mm
00:39 8.2 °F /  -13.2 °C 7.6 °F /  -13.6 °C 1033.4 in /  34990.9 hPa WSW 1.4 mph /  2.3 km/h 3.2 mph /  5.1 km/h 96 % 0.0 in /  0 mm
00:45 8.2 °F /  -13.2 °C 7.6 °F /  -13.6 °C 1033.7 in /  35001.1 hPa WSW 1.4 mph /  2.3 km/h 3.2 mph /  5.1 km/h 96 % 0.0 in /  0 mm
00:51 8.2 °F /  -13.2 °C 7.6 °F /  -13.6 °C 1033.4 in /  34990.9 hPa West 1.4 mph /  2.3 km/h 3.2 mph /  5.1 km/h 96 % 0.0 in /  0 mm
00:57 8.2 °F /  -13.2 °C 7.6 °F /  -13.6 °C 1033.4 in /  34990.9 hPa Calm   1.6 mph /  2.6 km/h 96 % 0.0 in /  0 mm
01:03 8.1 °F /  -13.3 °C 7.5 °F /  -13.6 °C 1033.4 in /  34990.9 hPa SW 1.4 mph /  2.3 km/h 3.2 mph /  5.1 km/h 96 % 0.0 in /  0 mm
01:09 8.1 °F /  -13.3 °C 7.5 °F /  -13.6 °C 1033.4 in /  34990.9 hPa Calm     96 % 0.0 in /  0 mm
01:15 7.9 °F /  -13.4 °C 7.3 °F /  -13.7 °C 1033.4 in /  34990.9 hPa Calm   1.6 mph /  2.6 km/h 96 % 0.0 in /  0 mm
01:21 7.9 °F /  -13.4 °C 7.3 °F /  -13.7 °C 1033.4 in /  34990.9 hPa Calm     96 % 0.0 in /  0 mm
01:27 7.8 °F /  -13.4 °C 7.2 °F /  -13.8 °C 1033.4 in /  34990.9 hPa Calm     96 % 0.0 in /  0 mm
01:33 7.8 °F /  -13.4 °C 7.2 °F /  -13.8 °C 1033.1 in /  34980.8 hPa SSW 1.4 mph /  2.3 km/h 3.2 mph /  5.1 km/h 96 % 0.0 in /  0 mm
01:39 7.8 °F /  -13.4 °C 7.4 °F /  -13.7 °C 1033.1 in /  34980.8 hPa Calm   1.6 mph /  2.6 km/h 97 % 0.0 in /  0 mm
01:45 7.8 °F /  -13.4 °C 7.4 °F /  -13.7 °C 1033.1 in /  34980.8 hPa Calm   1.6 mph /  2.6 km/h 97 % 0.0 in /  0 mm
01:52 7.8 °F /  -13.4 °C 7.4 °F /  -13.7 °C 1033.1 in /  34980.8 hPa SW 1.4 mph /  2.3 km/h 1.6 mph /  2.6 km/h 97 % 0.0 in /  0 mm
01:58 7.8 °F /  -13.4 °C 7.4 °F /  -13.7 °C 1033.1 in /  34980.8 hPa Calm   1.6 mph /  2.6 km/h 97 % 0.0 in /  0 mm
02:04 7.7 °F /  -13.5 °C 7.3 °F /  -13.7 °C 1033.1 in /  34980.8 hPa Calm   1.6 mph /  2.6 km/h 97 % 0.0 in /  0 mm
02:10 7.7 °F /  -13.5 °C 7.3 °F /  -13.7 °C 1033.1 in /  34980.8 hPa Calm     97 % 0.0 in /  0 mm
02:16 7.7 °F /  -13.5 °C 7.3 °F /  -13.7 °C 1033.1 in /  34980.8 hPa Calm     97 % 0.0 in /  0 mm
02:22 7.7 °F /  -13.5 °C 7.3 °F /  -13.7 °C 1033.1 in /  34980.8 hPa Calm     97 % 0.0 in /  0 mm
02:28 7.7 °F /  -13.5 °C 7.3 °F /  -13.7 °C 1033.1 in /  34980.8 hPa Calm     97 % 0.0 in /  0 mm
02:34 7.7 °F /  -13.5 °C 7.3 °F /  -13.7 °C 1033.1 in /  34980.8 hPa Calm   1.6 mph /  2.6 km/h 97 % 0.0 in /  0 mm
02:40 7.6 °F /  -13.6 °C 7.2 °F /  -13.8 °C 1033.1 in /  34980.8 hPa Calm     97 % 0.0 in /  0 mm
02:46 7.6 °F /  -13.6 °C 7.2 °F /  -13.8 °C 1033.1 in /  34980.8 hPa Calm     97 % 0.0 in /  0 mm
02:52 7.6 °F /  -13.6 °C 7.2 °F /  -13.8 °C 1033.1 in /  34980.8 hPa Calm   1.6 mph /  2.6 km/h 97 % 0.0 in /  0 mm
02:58 7.7 °F /  -13.5 °C 7.3 °F /  -13.7 °C 1033.1 in /  34980.8 hPa Calm   1.6 mph /  2.6 km/h 97 % 0.0 in /  0 mm
03:04 7.7 °F /  -13.5 °C 7.3 °F /  -13.7 °C 1033.1 in /  34980.8 hPa Calm   1.6 mph /  2.6 km/h 97 % 0.0 in /  0 mm
03:10 7.7 °F /  -13.5 °C 7.3 °F /  -13.7 °C 1033.1 in /  34980.8 hPa Calm     97 % 0.0 in /  0 mm
03:16 7.6 °F /  -13.6 °C 7.2 °F /  -13.8 °C 1033.1 in /  34980.8 hPa Calm     97 % 0.0 in /  0 mm
03:22 7.6 °F /  -13.6 °C 7.2 °F /  -13.8 °C 1032.7 in /  34967.2 hPa Calm     97 % 0.0 in /  0 mm
03:28 7.6 °F /  -13.6 °C 7.2 °F /  -13.8 °C 1032.7 in /  34967.2 hPa Calm     97 % 0.0 in /  0 mm
03:34 7.6 °F /  -13.6 °C 7.2 °F /  -13.8 °C 1032.7 in /  34967.2 hPa Calm     97 % 0.0 in /  0 mm
03:40 7.6 °F /  -13.6 °C 7.3 °F /  -13.7 °C 1032.7 in /  34967.2 hPa Calm     98 % 0.0 in /  0 mm
03:46 7.6 °F /  -13.6 °C 7.3 °F /  -13.7 °C 1032.7 in /  34967.2 hPa Calm     98 % 0.0 in /  0 mm
03:52 7.5 °F /  -13.6 °C 7.1 °F /  -13.8 °C 1032.7 in /  34967.2 hPa Calm     97 % 0.0 in /  0 mm
03:58 7.5 °F /  -13.6 °C 7.2 °F /  -13.8 °C 1032.7 in /  34967.2 hPa Calm     98 % 0.0 in /  0 mm
04:04 7.5 °F /  -13.6 °C 7.2 °F /  -13.8 °C 1032.7 in /  34967.2 hPa Calm     98 % 0.0 in /  0 mm
04:10 7.5 °F /  -13.6 °C 7.2 °F /  -13.8 °C 1032.7 in /  34967.2 hPa Calm     98 % 0.0 in /  0 mm
04:16 7.5 °F /  -13.6 °C 7.2 °F /  -13.8 °C 1032.4 in /  34957.1 hPa Calm     98 % 0.0 in /  0 mm
04:22 7.5 °F /  -13.6 °C 7.2 °F /  -13.8 °C 1032.4 in /  34957.1 hPa Calm     98 % 0.0 in /  0 mm
04:28 7.4 °F /  -13.7 °C 7.1 °F /  -13.8 °C 1032.4 in /  34957.1 hPa Calm     98 % 0.0 in /  0 mm
04:34 7.5 °F /  -13.6 °C 7.2 °F /  -13.8 °C 1032.4 in /  34957.1 hPa Calm     98 % 0.0 in /  0 mm
04:40 7.4 °F /  -13.7 °C 7.1 °F /  -13.8 °C 1032.4 in /  34957.1 hPa Calm     98 % 0.0 in /  0 mm
04:46 7.4 °F /  -13.7 °C 7.1 °F /  -13.8 °C 1032.4 in /  34957.1 hPa Calm     98 % 0.0 in /  0 mm
04:52 7.4 °F /  -13.7 °C 7.1 °F /  -13.8 °C 1032.4 in /  34957.1 hPa Calm     98 % 0.0 in /  0 mm
04:58 7.3 °F /  -13.7 °C 7.0 °F /  -13.9 °C 1032.4 in /  34957.1 hPa Calm     98 % 0.0 in /  0 mm
05:05 7.3 °F /  -13.7 °C 7.0 °F /  -13.9 °C 1032.4 in /  34957.1 hPa Calm     98 % 0.0 in /  0 mm
05:11 7.3 °F /  -13.7 °C 7.0 °F /  -13.9 °C 1032.4 in /  34957.1 hPa Calm     98 % 0.0 in /  0 mm
05:17 7.4 °F /  -13.7 °C 7.1 °F /  -13.8 °C 1032.4 in /  34957.1 hPa Calm     98 % 0.0 in /  0 mm
05:23 7.4 °F /  -13.7 °C 7.1 °F /  -13.8 °C 1032.4 in /  34957.1 hPa Calm     98 % 0.0 in /  0 mm
05:29 7.4 °F /  -13.7 °C 7.1 °F /  -13.8 °C 1032.4 in /  34957.1 hPa Calm     98 % 0.0 in /  0 mm
05:35 7.4 °F /  -13.7 °C 7.1 °F /  -13.8 °C 1032.4 in /  34957.1 hPa Calm     98 % 0.0 in /  0 mm
05:41 7.4 °F /  -13.7 °C 7.1 °F /  -13.8 °C 1032.4 in /  34957.1 hPa Calm     98 % 0.0 in /  0 mm
05:47 7.4 °F /  -13.7 °C 7.1 °F /  -13.8 °C 1032.4 in /  34957.1 hPa Calm     98 % 0.0 in /  0 mm
05:53 7.4 °F /  -13.7 °C 7.1 °F /  -13.8 °C 1032.4 in /  34957.1 hPa Calm     98 % 0.0 in /  0 mm
05:59 7.4 °F /  -13.7 °C 7.1 °F /  -13.8 °C 1032.4 in /  34957.1 hPa Calm     98 % 0.0 in /  0 mm
06:05 7.5 °F /  -13.6 °C 7.2 °F /  -13.8 °C 1032.4 in /  34957.1 hPa Calm     98 % 0.0 in /  0 mm
06:11 7.4 °F /  -13.7 °C 7.1 °F /  -13.8 °C 1032.4 in /  34957.1 hPa Calm     98 % 0.0 in /  0 mm
06:17 7.4 °F /  -13.7 °C 7.1 °F /  -13.8 °C 1032.4 in /  34957.1 hPa Calm     98 % 0.0 in /  0 mm
06:23 7.5 °F /  -13.6 °C 7.2 °F /  -13.8 °C 1032.4 in /  34957.1 hPa Calm     98 % 0.0 in /  0 mm
06:29 7.5 °F /  -13.6 °C 7.2 °F /  -13.8 °C 1032.4 in /  34957.1 hPa Calm     98 % 0.0 in /  0 mm
06:35 7.4 °F /  -13.7 °C 7.1 °F /  -13.8 °C 1032.4 in /  34957.1 hPa Calm     98 % 0.0 in /  0 mm
06:41 7.4 °F /  -13.7 °C 7.1 °F /  -13.8 °C 1032.1 in /  34946.9 hPa Calm     98 % 0.0 in /  0 mm
06:47 7.4 °F /  -13.7 °C 7.1 °F /  -13.8 °C 1032.4 in /  34957.1 hPa Calm     98 % 0.0 in /  0 mm
06:53 7.3 °F /  -13.7 °C 7.0 °F /  -13.9 °C 1032.4 in /  34957.1 hPa Calm     98 % 0.0 in /  0 mm
06:59 7.3 °F /  -13.7 °C 7.0 °F /  -13.9 °C 1032.4 in /  34957.1 hPa Calm     98 % 0.0 in /  0 mm
07:05 7.4 °F /  -13.7 °C 7.1 °F /  -13.8 °C 1032.4 in /  34957.1 hPa Calm     98 % 0.0 in /  0 mm
07:12 7.4 °F /  -13.7 °C 7.1 °F /  -13.8 °C 1032.1 in /  34946.9 hPa Calm     98 % 0.0 in /  0 mm
07:18 7.4 °F /  -13.7 °C 7.1 °F /  -13.8 °C 1032.4 in /  34957.1 hPa Calm     98 % 0.0 in /  0 mm
07:24 7.3 °F /  -13.7 °C 7.0 °F /  -13.9 °C 1032.1 in /  34946.9 hPa Calm     98 % 0.0 in /  0 mm
07:30 7.3 °F /  -13.7 °C 7.0 °F /  -13.9 °C 1032.1 in /  34946.9 hPa Calm     98 % 0.0 in /  0 mm
07:36 7.3 °F /  -13.7 °C 7.0 °F /  -13.9 °C 1032.1 in /  34946.9 hPa Calm   1.6 mph /  2.6 km/h 98 % 0.0 in /  0 mm
07:42 7.2 °F /  -13.8 °C 6.9 °F /  -13.9 °C 1032.1 in /  34946.9 hPa Calm     98 % 0.0 in /  0 mm
07:48 7.2 °F /  -13.8 °C 6.9 °F /  -13.9 °C 1032.1 in /  34946.9 hPa Calm     98 % 0.0 in /  0 mm
07:54 7.2 °F /  -13.8 °C 6.9 °F /  -13.9 °C 1032.1 in /  34946.9 hPa Calm     98 % 0.0 in /  0 mm
08:00 7.2 °F /  -13.8 °C 6.9 °F /  -13.9 °C 1032.1 in /  34946.9 hPa Calm     98 % 0.0 in /  0 mm
08:06 7.3 °F /  -13.7 °C 7.0 °F /  -13.9 °C 1032.1 in /  34946.9 hPa Calm     98 % 0.0 in /  0 mm
08:12 7.3 °F /  -13.7 °C 7.0 °F /  -13.9 °C 1032.1 in /  34946.9 hPa Calm     98 % 0.0 in /  0 mm
08:18 7.3 °F /  -13.7 °C 7.0 °F /  -13.9 °C 1032.4 in /  34957.1 hPa Calm     98 % 0.0 in /  0 mm
08:24 7.3 °F /  -13.7 °C 7.0 °F /  -13.9 °C 1032.4 in /  34957.1 hPa Calm     98 % 0.0 in /  0 mm
08:30 7.3 °F /  -13.7 °C 7.0 °F /  -13.9 °C 1032.4 in /  34957.1 hPa Calm     98 % 0.0 in /  0 mm
08:36 7.3 °F /  -13.7 °C 7.0 °F /  -13.9 °C 1032.4 in /  34957.1 hPa Calm     98 % 0.0 in /  0 mm
08:42 7.2 °F /  -13.8 °C 6.9 °F /  -13.9 °C 1032.1 in /  34946.9 hPa Calm     98 % 0.0 in /  0 mm
08:48 7.2 °F /  -13.8 °C 6.9 °F /  -13.9 °C 1032.1 in /  34946.9 hPa Calm     98 % 0.0 in /  0 mm
08:55 7.2 °F /  -13.8 °C 6.9 °F /  -13.9 °C 1032.1 in /  34946.9 hPa Calm     98 % 0.0 in /  0 mm
09:01 7.3 °F /  -13.7 °C 7.0 °F /  -13.9 °C 1032.4 in /  34957.1 hPa Calm     98 % 0.0 in /  0 mm
09:07 7.3 °F /  -13.7 °C 7.0 °F /  -13.9 °C 1032.1 in /  34946.9 hPa Calm     98 % 0.0 in /  0 mm
09:13 7.4 °F /  -13.7 °C 7.1 °F /  -13.8 °C 1032.1 in /  34946.9 hPa Calm     98 % 0.0 in /  0 mm
09:19 7.4 °F /  -13.7 °C 7.1 °F /  -13.8 °C 1032.1 in /  34946.9 hPa Calm     98 % 0.0 in /  0 mm
09:25 7.5 °F /  -13.6 °C 7.2 °F /  -13.8 °C 1032.4 in /  34957.1 hPa Calm     98 % 0.0 in /  0 mm
09:31 7.6 °F /  -13.6 °C 7.3 °F /  -13.7 °C 1032.1 in /  34946.9 hPa Calm     98 % 0.0 in /  0 mm
09:37 7.7 °F /  -13.5 °C 7.4 °F /  -13.7 °C 1032.1 in /  34946.9 hPa Calm     98 % 0.0 in /  0 mm
09:43 7.7 °F /  -13.5 °C 7.4 °F /  -13.7 °C 1032.1 in /  34946.9 hPa Calm     98 % 0.0 in /  0 mm
09:49 7.8 °F /  -13.4 °C 7.5 °F /  -13.6 °C 1032.1 in /  34946.9 hPa SSE 1.4 mph /  2.3 km/h 1.6 mph /  2.6 km/h 98 % 0.0 in /  0 mm
09:55 7.9 °F /  -13.4 °C 7.6 °F /  -13.6 °C 1032.1 in /  34946.9 hPa SSW 1.4 mph /  2.3 km/h 1.6 mph /  2.6 km/h 98 % 0.0 in /  0 mm
10:01 8.0 °F /  -13.3 °C 7.7 °F /  -13.5 °C 1032.1 in /  34946.9 hPa SSW 1.4 mph /  2.3 km/h 3.2 mph /  5.1 km/h 98 % 0.0 in /  0 mm
10:07 7.9 °F /  -13.4 °C 7.6 °F /  -13.6 °C 1032.1 in /  34946.9 hPa SSW 1.4 mph /  2.3 km/h 4.8 mph /  7.7 km/h 98 % 0.0 in /  0 mm
10:13 8.0 °F /  -13.3 °C 7.7 °F /  -13.5 °C 1032.1 in /  34946.9 hPa SW 3.2 mph /  5.1 km/h 3.2 mph /  5.1 km/h 98 % 0.0 in /  0 mm
10:19 8.1 °F /  -13.3 °C 7.8 °F /  -13.4 °C 1032.1 in /  34946.9 hPa SSW 3.2 mph /  5.1 km/h 3.2 mph /  5.1 km/h 98 % 0.0 in /  0 mm
10:25 8.2 °F /  -13.2 °C 7.9 °F /  -13.4 °C 1032.1 in /  34946.9 hPa SW 3.2 mph /  5.1 km/h 4.8 mph /  7.7 km/h 98 % 0.0 in /  0 mm
10:31 8.2 °F /  -13.2 °C 7.9 °F /  -13.4 °C 1032.1 in /  34946.9 hPa SSW 3.2 mph /  5.1 km/h 6.4 mph /  10.3 km/h 98 % 0.0 in /  0 mm
10:37 8.2 °F /  -13.2 °C 7.9 °F /  -13.4 °C 1032.1 in /  34946.9 hPa SSW 3.2 mph /  5.1 km/h 8.0 mph /  12.9 km/h 98 % 0.0 in /  0 mm
10:43 8.3 °F /  -13.2 °C 8.0 °F /  -13.3 °C 1032.1 in /  34946.9 hPa SW 4.7 mph /  7.6 km/h 8.0 mph /  12.9 km/h 98 % 0.0 in /  0 mm
10:49 8.3 °F /  -13.2 °C 8.0 °F /  -13.3 °C 1032.1 in /  34946.9 hPa SW 6.4 mph /  10.3 km/h 8.0 mph /  12.9 km/h 98 % 0.0 in /  0 mm
10:55 8.2 °F /  -13.2 °C 7.9 °F /  -13.4 °C 1032.1 in /  34946.9 hPa SW 7.9 mph /  12.7 km/h 8.0 mph /  12.9 km/h 98 % 0.0 in /  0 mm
11:01 8.3 °F /  -13.2 °C 8.0 °F /  -13.3 °C 1032.1 in /  34946.9 hPa SSW 3.2 mph /  5.1 km/h 6.4 mph /  10.3 km/h 98 % 0.0 in /  0 mm
11:07 8.4 °F /  -13.1 °C 8.1 °F /  -13.3 °C 1032.1 in /  34946.9 hPa SW 6.4 mph /  10.3 km/h 8.0 mph /  12.9 km/h 98 % 0.0 in /  0 mm
11:13 8.5 °F /  -13.1 °C 8.2 °F /  -13.2 °C 1032.1 in /  34946.9 hPa SSW 6.4 mph /  10.3 km/h 8.0 mph /  12.9 km/h 98 % 0.0 in /  0 mm
11:19 8.7 °F /  -12.9 °C 8.4 °F /  -13.1 °C 1032.1 in /  34946.9 hPa SSW 3.2 mph /  5.1 km/h 6.4 mph /  10.3 km/h 98 % 0.0 in /  0 mm
11:25 8.7 °F /  -12.9 °C 8.3 °F /  -13.2 °C 1032.1 in /  34946.9 hPa SW 4.7 mph /  7.6 km/h 6.4 mph /  10.3 km/h 97 % 0.0 in /  0 mm
11:31 8.7 °F /  -12.9 °C 8.3 °F /  -13.2 °C 1032.1 in /  34946.9 hPa SSW 6.4 mph /  10.3 km/h 8.0 mph /  12.9 km/h 97 % 0.0 in /  0 mm
11:37 8.8 °F /  -12.9 °C 8.3 °F /  -13.2 °C 1032.1 in /  34946.9 hPa SW 7.9 mph /  12.7 km/h 8.0 mph /  12.9 km/h 97 % 0.0 in /  0 mm
11:43 8.9 °F /  -12.8 °C 8.4 °F /  -13.1 °C 1031.7 in /  34933.4 hPa SSW 7.9 mph /  12.7 km/h 8.0 mph /  12.9 km/h 97 % 0.0 in /  0 mm
11:49 8.9 °F /  -12.8 °C 8.3 °F /  -13.2 °C 1031.7 in /  34933.4 hPa SSW 3.2 mph /  5.1 km/h 8.0 mph /  12.9 km/h 96 % 0.0 in /  0 mm
11:55 9.0 °F /  -12.8 °C 8.4 °F /  -13.1 °C 1031.7 in /  34933.4 hPa SW 7.9 mph /  12.7 km/h 9.7 mph /  15.6 km/h 96 % 0.0 in /  0 mm
12:01 9.0 °F /  -12.8 °C 8.2 °F /  -13.2 °C 1031.7 in /  34933.4 hPa WSW 11.1 mph /  17.9 km/h 11.3 mph /  18.2 km/h 95 % 0.0 in /  0 mm
12:07 9.1 °F /  -12.7 °C 8.3 °F /  -13.2 °C 1031.7 in /  34933.4 hPa WSW 3.2 mph /  5.1 km/h 6.4 mph /  10.3 km/h 95 % 0.0 in /  0 mm
12:13 9.2 °F /  -12.7 °C 8.3 °F /  -13.2 °C 1031.7 in /  34933.4 hPa SW 1.4 mph /  2.3 km/h 6.4 mph /  10.3 km/h 94 % 0.0 in /  0 mm
12:19 9.3 °F /  -12.6 °C 8.5 °F /  -13.1 °C 1031.4 in /  34923.2 hPa WNW 3.2 mph /  5.1 km/h 3.2 mph /  5.1 km/h 95 % 0.0 in /  0 mm
12:25 9.5 °F /  -12.5 °C 8.6 °F /  -13 °C 1031.4 in /  34923.2 hPa SSW 1.4 mph /  2.3 km/h 4.8 mph /  7.7 km/h 94 % 0.0 in /  0 mm
12:31 9.4 °F /  -12.6 °C 8.2 °F /  -13.2 °C 1031.4 in /  34923.2 hPa West 3.2 mph /  5.1 km/h 11.3 mph /  18.2 km/h 92 % 0.0 in /  0 mm
12:37 9.6 °F /  -12.4 °C 8.5 °F /  -13.1 °C 1031.0 in /  34909.7 hPa WSW 7.9 mph /  12.7 km/h 8.0 mph /  12.9 km/h 93 % 0.0 in /  0 mm
12:43 9.6 °F /  -12.4 °C 8.4 °F /  -13.1 °C 1031.0 in /  34909.7 hPa West 9.7 mph /  15.6 km/h 11.3 mph /  18.2 km/h 92 % 0.0 in /  0 mm
12:49 9.5 °F /  -12.5 °C 8.1 °F /  -13.3 °C 1031.0 in /  34909.7 hPa SW 6.4 mph /  10.3 km/h 11.3 mph /  18.2 km/h 91 % 0.0 in /  0 mm
12:55 9.6 °F /  -12.4 °C 8.2 °F /  -13.2 °C 1031.0 in /  34909.7 hPa West 6.4 mph /  10.3 km/h 8.0 mph /  12.9 km/h 91 % 0.0 in /  0 mm
13:01 9.6 °F /  -12.4 °C 8.2 °F /  -13.2 °C 1031.0 in /  34909.7 hPa West 7.9 mph /  12.7 km/h 9.7 mph /  15.6 km/h 91 % 0.0 in /  0 mm
13:07 9.5 °F /  -12.5 °C 8.1 °F /  -13.3 °C 1031.0 in /  34909.7 hPa WSW 4.7 mph /  7.6 km/h 9.7 mph /  15.6 km/h 91 % 0.0 in /  0 mm
13:13 9.5 °F /  -12.5 °C 8.1 °F /  -13.3 °C 1031.0 in /  34909.7 hPa WSW 3.2 mph /  5.1 km/h 8.0 mph /  12.9 km/h 91 % 0.0 in /  0 mm
13:19 9.5 °F /  -12.5 °C 8.1 °F /  -13.3 °C 1031.0 in /  34909.7 hPa West 1.4 mph /  2.3 km/h 4.8 mph /  7.7 km/h 91 % 0.0 in /  0 mm
13:25 9.6 °F /  -12.4 °C 8.4 °F /  -13.1 °C 1030.7 in /  34899.5 hPa WSW 4.7 mph /  7.6 km/h 6.4 mph /  10.3 km/h 92 % 0.0 in /  0 mm
13:31 9.6 °F /  -12.4 °C 8.4 °F /  -13.1 °C 1030.7 in /  34899.5 hPa SW 4.7 mph /  7.6 km/h 6.4 mph /  10.3 km/h 92 % 0.0 in /  0 mm
13:37 9.5 °F /  -12.5 °C 8.3 °F /  -13.2 °C 1030.7 in /  34899.5 hPa WSW 4.7 mph /  7.6 km/h 6.4 mph /  10.3 km/h 92 % 0.0 in /  0 mm
13:43 9.6 °F /  -12.4 °C 8.2 °F /  -13.2 °C 1030.4 in /  34889.3 hPa West 4.7 mph /  7.6 km/h 9.7 mph /  15.6 km/h 91 % 0.0 in /  0 mm
13:49 9.7 °F /  -12.4 °C 8.3 °F /  -13.2 °C 1030.4 in /  34889.3 hPa West 3.2 mph /  5.1 km/h 8.0 mph /  12.9 km/h 91 % 0.0 in /  0 mm
13:55 9.6 °F /  -12.4 °C 8.2 °F /  -13.2 °C 1030.4 in /  34889.3 hPa WNW 1.4 mph /  2.3 km/h 9.7 mph /  15.6 km/h 91 % 0.0 in /  0 mm
14:01 9.6 °F /  -12.4 °C 8.2 °F /  -13.2 °C 1030.4 in /  34889.3 hPa West 3.2 mph /  5.1 km/h 11.3 mph /  18.2 km/h 91 % 0.0 in /  0 mm
14:07 9.5 °F /  -12.5 °C 8.1 °F /  -13.3 °C 1030.0 in /  34875.8 hPa West 7.9 mph /  12.7 km/h 8.0 mph /  12.9 km/h 91 % 0.0 in /  0 mm
14:13 9.5 °F /  -12.5 °C 8.1 °F /  -13.3 °C 1030.0 in /  34875.8 hPa West 4.7 mph /  7.6 km/h 8.0 mph /  12.9 km/h 91 % 0.0 in /  0 mm
14:19 9.6 °F /  -12.4 °C 8.2 °F /  -13.2 °C 1030.0 in /  34875.8 hPa WSW 6.4 mph /  10.3 km/h 6.4 mph /  10.3 km/h 91 % 0.0 in /  0 mm
14:25 9.5 °F /  -12.5 °C 8.3 °F /  -13.2 °C 1030.0 in /  34875.8 hPa West 6.4 mph /  10.3 km/h 8.0 mph /  12.9 km/h 92 % 0.0 in /  0 mm
14:31 9.5 °F /  -12.5 °C 8.3 °F /  -13.2 °C 1030.0 in /  34875.8 hPa WSW 1.4 mph /  2.3 km/h 9.7 mph /  15.6 km/h 92 % 0.0 in /  0 mm
14:37 9.5 °F /  -12.5 °C 8.1 °F /  -13.3 °C 1029.7 in /  34865.6 hPa West 3.2 mph /  5.1 km/h 6.4 mph /  10.3 km/h 91 % 0.0 in /  0 mm
14:43 9.6 °F /  -12.4 °C 8.4 °F /  -13.1 °C 1029.7 in /  34865.6 hPa West 1.4 mph /  2.3 km/h 3.2 mph /  5.1 km/h 92 % 0.0 in /  0 mm
14:49 9.7 °F /  -12.4 °C 8.5 °F /  -13.1 °C 1029.7 in /  34865.6 hPa West 3.2 mph /  5.1 km/h 3.2 mph /  5.1 km/h 92 % 0.0 in /  0 mm
14:55 9.7 °F /  -12.4 °C 8.3 °F /  -13.2 °C 1029.7 in /  34865.6 hPa SW 3.2 mph /  5.1 km/h 4.8 mph /  7.7 km/h 91 % 0.0 in /  0 mm
15:01 9.8 °F /  -12.3 °C 8.4 °F /  -13.1 °C 1029.3 in /  34852.1 hPa West 3.2 mph /  5.1 km/h 3.2 mph /  5.1 km/h 91 % 0.0 in /  0 mm
15:07 9.8 °F /  -12.3 °C 8.4 °F /  -13.1 °C 1029.3 in /  34852.1 hPa West 3.2 mph /  5.1 km/h 6.4 mph /  10.3 km/h 91 % 0.0 in /  0 mm
15:13 9.8 °F /  -12.3 °C 8.4 °F /  -13.1 °C 1029.3 in /  34852.1 hPa WSW 1.4 mph /  2.3 km/h 6.4 mph /  10.3 km/h 91 % 0.0 in /  0 mm
15:19 9.8 °F /  -12.3 °C 8.4 °F /  -13.1 °C 1029.3 in /  34852.1 hPa West 4.7 mph /  7.6 km/h 6.4 mph /  10.3 km/h 91 % 0.0 in /  0 mm
15:25 9.8 °F /  -12.3 °C 8.4 °F /  -13.1 °C 1029.3 in /  34852.1 hPa WSW 6.4 mph /  10.3 km/h 9.7 mph /  15.6 km/h 91 % 0.0 in /  0 mm
15:31 9.7 °F /  -12.4 °C 8.3 °F /  -13.2 °C 1029.3 in /  34852.1 hPa West 6.4 mph /  10.3 km/h 6.4 mph /  10.3 km/h 91 % 0.0 in /  0 mm
15:37 9.7 °F /  -12.4 °C 8.3 °F /  -13.2 °C 1029.3 in /  34852.1 hPa SW 6.4 mph /  10.3 km/h 9.7 mph /  15.6 km/h 91 % 0.0 in /  0 mm
15:43 9.6 °F /  -12.4 °C 8.0 °F /  -13.3 °C 1029.3 in /  34852.1 hPa WSW 3.2 mph /  5.1 km/h 9.7 mph /  15.6 km/h 90 % 0.0 in /  0 mm
15:49 9.6 °F /  -12.4 °C 8.2 °F /  -13.2 °C 1029.3 in /  34852.1 hPa WSW 4.7 mph /  7.6 km/h 8.0 mph /  12.9 km/h 91 % 0.0 in /  0 mm
15:55 9.6 °F /  -12.4 °C 8.2 °F /  -13.2 °C 1029.3 in /  34852.1 hPa WSW 1.4 mph /  2.3 km/h 3.2 mph /  5.1 km/h 91 % 0.0 in /  0 mm
16:02 9.6 °F /  -12.4 °C 8.2 °F /  -13.2 °C 1029.0 in /  34841.9 hPa WSW 1.4 mph /  2.3 km/h 4.8 mph /  7.7 km/h 91 % 0.0 in /  0 mm
16:08 9.7 °F /  -12.4 °C 8.3 °F /  -13.2 °C 1029.3 in /  34852.1 hPa West 4.7 mph /  7.6 km/h 8.0 mph /  12.9 km/h 91 % 0.0 in /  0 mm
16:14 9.7 °F /  -12.4 °C 8.3 °F /  -13.2 °C 1029.3 in /  34852.1 hPa West 6.4 mph /  10.3 km/h 8.0 mph /  12.9 km/h 91 % 0.0 in /  0 mm
16:20 9.7 °F /  -12.4 °C 8.3 °F /  -13.2 °C 1029.0 in /  34841.9 hPa West 4.7 mph /  7.6 km/h 6.4 mph /  10.3 km/h 91 % 0.0 in /  0 mm
16:26 9.7 °F /  -12.4 °C 8.3 °F /  -13.2 °C 1029.0 in /  34841.9 hPa WNW 1.4 mph /  2.3 km/h 6.4 mph /  10.3 km/h 91 % 0.0 in /  0 mm
16:32 9.7 °F /  -12.4 °C 8.3 °F /  -13.2 °C 1029.0 in /  34841.9 hPa WSW 4.7 mph /  7.6 km/h 4.8 mph /  7.7 km/h 91 % 0.0 in /  0 mm
16:38 9.7 °F /  -12.4 °C 8.3 °F /  -13.2 °C 1029.0 in /  34841.9 hPa West 3.2 mph /  5.1 km/h 8.0 mph /  12.9 km/h 91 % 0.0 in /  0 mm
16:44 9.7 °F /  -12.4 °C 8.3 °F /  -13.2 °C 1029.0 in /  34841.9 hPa West 6.4 mph /  10.3 km/h 8.0 mph /  12.9 km/h 91 % 0.0 in /  0 mm
16:50 9.6 °F /  -12.4 °C 8.2 °F /  -13.2 °C 1028.7 in /  34831.8 hPa West 1.4 mph /  2.3 km/h 3.2 mph /  5.1 km/h 91 % 0.0 in /  0 mm
16:56 9.6 °F /  -12.4 °C 8.2 °F /  -13.2 °C 1028.7 in /  34831.8 hPa Calm   4.8 mph /  7.7 km/h 91 % 0.0 in /  0 mm
17:02 9.5 °F /  -12.5 °C 8.3 °F /  -13.2 °C 1028.7 in /  34831.8 hPa West 1.4 mph /  2.3 km/h 4.8 mph /  7.7 km/h 92 % 0.0 in /  0 mm
17:08 9.5 °F /  -12.5 °C 8.3 °F /  -13.2 °C 1028.7 in /  34831.8 hPa West 1.4 mph /  2.3 km/h 4.8 mph /  7.7 km/h 92 % 0.0 in /  0 mm
17:14 9.4 °F /  -12.6 °C 8.2 °F /  -13.2 °C 1028.7 in /  34831.8 hPa Calm   1.6 mph /  2.6 km/h 92 % 0.0 in /  0 mm
17:20 9.4 °F /  -12.6 °C 8.2 °F /  -13.2 °C 1028.3 in /  34818.2 hPa WSW 3.2 mph /  5.1 km/h 3.2 mph /  5.1 km/h 92 % 0.0 in /  0 mm
17:26 9.4 °F /  -12.6 °C 8.3 °F /  -13.2 °C 1028.3 in /  34818.2 hPa SW 3.2 mph /  5.1 km/h 4.8 mph /  7.7 km/h 93 % 0.0 in /  0 mm
17:32 9.4 °F /  -12.6 °C 8.3 °F /  -13.2 °C 1028.3 in /  34818.2 hPa SW 4.7 mph /  7.6 km/h 4.8 mph /  7.7 km/h 93 % 0.0 in /  0 mm
17:38 9.3 °F /  -12.6 °C 8.2 °F /  -13.2 °C 1028.3 in /  34818.2 hPa SSW 3.2 mph /  5.1 km/h 3.2 mph /  5.1 km/h 93 % 0.0 in /  0 mm
17:44 9.3 °F /  -12.6 °C 8.4 °F /  -13.1 °C 1028.3 in /  34818.2 hPa SW 1.4 mph /  2.3 km/h 3.2 mph /  5.1 km/h 94 % 0.0 in /  0 mm
17:50 9.2 °F /  -12.7 °C 8.3 °F /  -13.2 °C 1028.3 in /  34818.2 hPa SW 3.2 mph /  5.1 km/h 4.8 mph /  7.7 km/h 94 % 0.0 in /  0 mm
17:56 9.2 °F /  -12.7 °C 8.3 °F /  -13.2 °C 1028.3 in /  34818.2 hPa WSW 1.4 mph /  2.3 km/h 3.2 mph /  5.1 km/h 94 % 0.0 in /  0 mm
18:02 9.2 °F /  -12.7 °C 8.3 °F /  -13.2 °C 1028.0 in /  34808.1 hPa SW 3.2 mph /  5.1 km/h 4.8 mph /  7.7 km/h 94 % 0.0 in /  0 mm
18:08 9.2 °F /  -12.7 °C 8.3 °F /  -13.2 °C 1028.0 in /  34808.1 hPa SW 3.2 mph /  5.1 km/h 4.8 mph /  7.7 km/h 94 % 0.0 in /  0 mm
18:14 9.1 °F /  -12.7 °C 8.2 °F /  -13.2 °C 1028.0 in /  34808.1 hPa SW 3.2 mph /  5.1 km/h 6.4 mph /  10.3 km/h 94 % 0.0 in /  0 mm
18:20 9.1 °F /  -12.7 °C 8.2 °F /  -13.2 °C 1028.0 in /  34808.1 hPa South 4.7 mph /  7.6 km/h 6.4 mph /  10.3 km/h 94 % 0.0 in /  0 mm
18:26 9.0 °F /  -12.8 °C 8.1 °F /  -13.3 °C 1028.0 in /  34808.1 hPa SW 3.2 mph /  5.1 km/h 6.4 mph /  10.3 km/h 94 % 0.0 in /  0 mm
18:32 8.9 °F /  -12.8 °C 8.1 °F /  -13.3 °C 1028.0 in /  34808.1 hPa West 1.4 mph /  2.3 km/h 4.8 mph /  7.7 km/h 95 % 0.0 in /  0 mm
18:38 8.9 °F /  -12.8 °C 8.0 °F /  -13.3 °C 1028.0 in /  34808.1 hPa SSW 3.2 mph /  5.1 km/h 6.4 mph /  10.3 km/h 94 % 0.0 in /  0 mm
18:44 8.8 °F /  -12.9 °C 7.9 °F /  -13.4 °C 1028.0 in /  34808.1 hPa SW 3.2 mph /  5.1 km/h 8.0 mph /  12.9 km/h 94 % 0.0 in /  0 mm
18:50 8.8 °F /  -12.9 °C 7.9 °F /  -13.4 °C 1028.3 in /  34818.2 hPa WSW 4.7 mph /  7.6 km/h 6.4 mph /  10.3 km/h 94 % 0.0 in /  0 mm
18:56 8.8 °F /  -12.9 °C 7.9 °F /  -13.4 °C 1028.3 in /  34818.2 hPa SW 3.2 mph /  5.1 km/h 6.4 mph /  10.3 km/h 94 % 0.0 in /  0 mm
19:02 8.8 °F /  -12.9 °C 7.9 °F /  -13.4 °C 1028.3 in /  34818.2 hPa SW 1.4 mph /  2.3 km/h 3.2 mph /  5.1 km/h 94 % 0.0 in /  0 mm
19:08 8.7 °F /  -12.9 °C 7.9 °F /  -13.4 °C 1028.3 in /  34818.2 hPa SW 3.2 mph /  5.1 km/h 4.8 mph /  7.7 km/h 95 % 0.0 in /  0 mm
19:14 8.7 °F /  -12.9 °C 7.9 °F /  -13.4 °C 1028.3 in /  34818.2 hPa SW 1.4 mph /  2.3 km/h 3.2 mph /  5.1 km/h 95 % 0.0 in /  0 mm
19:20 8.7 °F /  -12.9 °C 7.9 °F /  -13.4 °C 1028.0 in /  34808.1 hPa SW 1.4 mph /  2.3 km/h 3.2 mph /  5.1 km/h 95 % 0.0 in /  0 mm
19:26 8.7 °F /  -12.9 °C 7.9 °F /  -13.4 °C 1028.3 in /  34818.2 hPa SSW 1.4 mph /  2.3 km/h 4.8 mph /  7.7 km/h 95 % 0.0 in /  0 mm
19:32 8.7 °F /  -12.9 °C 7.9 °F /  -13.4 °C 1028.0 in /  34808.1 hPa SW 4.7 mph /  7.6 km/h 6.4 mph /  10.3 km/h 95 % 0.0 in /  0 mm
19:38 8.7 °F /  -12.9 °C 7.9 °F /  -13.4 °C 1028.0 in /  34808.1 hPa SW 3.2 mph /  5.1 km/h 4.8 mph /  7.7 km/h 95 % 0.0 in /  0 mm
19:44 8.7 °F /  -12.9 °C 7.9 °F /  -13.4 °C 1028.0 in /  34808.1 hPa WSW 4.7 mph /  7.6 km/h 6.4 mph /  10.3 km/h 95 % 0.0 in /  0 mm
19:50 8.7 °F /  -12.9 °C 7.9 °F /  -13.4 °C 1028.0 in /  34808.1 hPa WSW 1.4 mph /  2.3 km/h 3.2 mph /  5.1 km/h 95 % 0.0 in /  0 mm
19:57 8.7 °F /  -12.9 °C 7.9 °F /  -13.4 °C 1028.0 in /  34808.1 hPa SW 1.4 mph /  2.3 km/h 4.8 mph /  7.7 km/h 95 % 0.0 in /  0 mm
20:03 8.7 °F /  -12.9 °C 7.9 °F /  -13.4 °C 1028.0 in /  34808.1 hPa SW 1.4 mph /  2.3 km/h 3.2 mph /  5.1 km/h 95 % 0.0 in /  0 mm
20:09 8.6 °F /  -13 °C 7.8 °F /  -13.4 °C 1028.0 in /  34808.1 hPa Calm   1.6 mph /  2.6 km/h 95 % 0.0 in /  0 mm
20:15 8.6 °F /  -13 °C 7.8 °F /  -13.4 °C 1028.0 in /  34808.1 hPa Calm   1.6 mph /  2.6 km/h 95 % 0.0 in /  0 mm
20:21 8.6 °F /  -13 °C 7.8 °F /  -13.4 °C 1028.0 in /  34808.1 hPa Calm   4.8 mph /  7.7 km/h 95 % 0.0 in /  0 mm
20:27 8.6 °F /  -13 °C 7.8 °F /  -13.4 °C 1028.0 in /  34808.1 hPa SW 3.2 mph /  5.1 km/h 3.2 mph /  5.1 km/h 95 % 0.0 in /  0 mm
20:33 8.6 °F /  -13 °C 7.8 °F /  -13.4 °C 1027.7 in /  34797.9 hPa SW 1.4 mph /  2.3 km/h 3.2 mph /  5.1 km/h 95 % 0.0 in /  0 mm
20:39 8.6 °F /  -13 °C 7.8 °F /  -13.4 °C 1027.7 in /  34797.9 hPa SW 3.2 mph /  5.1 km/h 4.8 mph /  7.7 km/h 95 % 0.0 in /  0 mm
20:45 8.6 °F /  -13 °C 7.7 °F /  -13.5 °C 1027.7 in /  34797.9 hPa WNW 3.2 mph /  5.1 km/h 6.4 mph /  10.3 km/h 94 % 0.0 in /  0 mm
20:51 8.6 °F /  -13 °C 7.7 °F /  -13.5 °C 1027.7 in /  34797.9 hPa WSW 1.4 mph /  2.3 km/h 3.2 mph /  5.1 km/h 94 % 0.0 in /  0 mm
20:57 8.6 °F /  -13 °C 7.7 °F /  -13.5 °C 1027.7 in /  34797.9 hPa Calm   1.6 mph /  2.6 km/h 94 % 0.0 in /  0 mm
21:03 8.6 °F /  -13 °C 7.7 °F /  -13.5 °C 1027.7 in /  34797.9 hPa Calm   1.6 mph /  2.6 km/h 94 % 0.0 in /  0 mm
21:09 8.5 °F /  -13.1 °C 7.6 °F /  -13.6 °C 1027.7 in /  34797.9 hPa Calm     94 % 0.0 in /  0 mm
21:15 8.6 °F /  -13 °C 7.7 °F /  -13.5 °C 1027.7 in /  34797.9 hPa Calm   1.6 mph /  2.6 km/h 94 % 0.0 in /  0 mm
21:21 8.6 °F /  -13 °C 7.7 °F /  -13.5 °C 1027.7 in /  34797.9 hPa SW 1.4 mph /  2.3 km/h 4.8 mph /  7.7 km/h 94 % 0.0 in /  0 mm
21:27 8.6 °F /  -13 °C 7.7 °F /  -13.5 °C 1027.7 in /  34797.9 hPa West 4.7 mph /  7.6 km/h 8.0 mph /  12.9 km/h 94 % 0.0 in /  0 mm
21:33 8.6 °F /  -13 °C 7.7 °F /  -13.5 °C 1027.7 in /  34797.9 hPa SW 3.2 mph /  5.1 km/h 3.2 mph /  5.1 km/h 94 % 0.0 in /  0 mm
21:39 8.6 °F /  -13 °C 7.7 °F /  -13.5 °C 1027.7 in /  34797.9 hPa SW 4.7 mph /  7.6 km/h 9.7 mph /  15.6 km/h 94 % 0.0 in /  0 mm
21:45 8.7 °F /  -12.9 °C 7.8 °F /  -13.4 °C 1027.7 in /  34797.9 hPa SW 3.2 mph /  5.1 km/h 6.4 mph /  10.3 km/h 94 % 0.0 in /  0 mm
21:51 8.6 °F /  -13 °C 7.7 °F /  -13.5 °C 1027.7 in /  34797.9 hPa West 3.2 mph /  5.1 km/h 4.8 mph /  7.7 km/h 94 % 0.0 in /  0 mm
21:57 8.6 °F /  -13 °C 7.7 °F /  -13.5 °C 1027.7 in /  34797.9 hPa WSW 1.4 mph /  2.3 km/h 6.4 mph /  10.3 km/h 94 % 0.0 in /  0 mm
22:03 8.6 °F /  -13 °C 7.5 °F /  -13.6 °C 1027.7 in /  34797.9 hPa SW 9.7 mph /  15.6 km/h 9.7 mph /  15.6 km/h 93 % 0.0 in /  0 mm
22:09 8.6 °F /  -13 °C 7.5 °F /  -13.6 °C 1027.3 in /  34784.4 hPa WSW 6.4 mph /  10.3 km/h 9.7 mph /  15.6 km/h 93 % 0.0 in /  0 mm
22:15 8.6 °F /  -13 °C 7.5 °F /  -13.6 °C 1027.3 in /  34784.4 hPa WSW 4.7 mph /  7.6 km/h 8.0 mph /  12.9 km/h 93 % 0.0 in /  0 mm
22:21 8.6 °F /  -13 °C 7.5 °F /  -13.6 °C 1027.3 in /  34784.4 hPa WSW 1.4 mph /  2.3 km/h 4.8 mph /  7.7 km/h 93 % 0.0 in /  0 mm
22:27 8.6 °F /  -13 °C 7.5 °F /  -13.6 °C 1027.3 in /  34784.4 hPa WSW 6.4 mph /  10.3 km/h 12.9 mph /  20.8 km/h 93 % 0.0 in /  0 mm
22:33 8.6 °F /  -13 °C 7.4 °F /  -13.7 °C 1027.3 in /  34784.4 hPa WSW 6.4 mph /  10.3 km/h 9.7 mph /  15.6 km/h 92 % 0.0 in /  0 mm
22:39 8.6 °F /  -13 °C 7.4 °F /  -13.7 °C 1027.3 in /  34784.4 hPa SSW 3.2 mph /  5.1 km/h 4.8 mph /  7.7 km/h 92 % 0.0 in /  0 mm
22:45 8.6 °F /  -13 °C 7.4 °F /  -13.7 °C 1027.3 in /  34784.4 hPa WSW 4.7 mph /  7.6 km/h 6.4 mph /  10.3 km/h 92 % 0.0 in /  0 mm
22:51 8.6 °F /  -13 °C 7.4 °F /  -13.7 °C 1027.3 in /  34784.4 hPa West 4.7 mph /  7.6 km/h 9.7 mph /  15.6 km/h 92 % 0.0 in /  0 mm
22:57 8.6 °F /  -13 °C 7.4 °F /  -13.7 °C 1027.3 in /  34784.4 hPa WSW 6.4 mph /  10.3 km/h 9.7 mph /  15.6 km/h 92 % 0.0 in /  0 mm
23:03 8.6 °F /  -13 °C 7.4 °F /  -13.7 °C 1027.0 in /  34774.2 hPa WNW 7.9 mph /  12.7 km/h 12.9 mph /  20.8 km/h 92 % 0.0 in /  0 mm
23:09 8.6 °F /  -13 °C 7.4 °F /  -13.7 °C 1027.0 in /  34774.2 hPa West 14.3 mph /  23 km/h 16.1 mph /  25.9 km/h 92 % 0.0 in /  0 mm
23:15 8.6 °F /  -13 °C 7.4 °F /  -13.7 °C 1027.0 in /  34774.2 hPa WSW 6.4 mph /  10.3 km/h 11.3 mph /  18.2 km/h 92 % 0.0 in /  0 mm
23:21 8.6 °F /  -13 °C 7.4 °F /  -13.7 °C 1027.0 in /  34774.2 hPa West 6.4 mph /  10.3 km/h 11.3 mph /  18.2 km/h 92 % 0.0 in /  0 mm
23:27 8.6 °F /  -13 °C 7.2 °F /  -13.8 °C 1027.0 in /  34774.2 hPa WSW 7.9 mph /  12.7 km/h 9.7 mph /  15.6 km/h 91 % 0.0 in /  0 mm
23:33 8.6 °F /  -13 °C 7.2 °F /  -13.8 °C 1026.6 in /  34760.7 hPa West 4.7 mph /  7.6 km/h 9.7 mph /  15.6 km/h 91 % 0.0 in /  0 mm
23:39 8.6 °F /  -13 °C 7.2 °F /  -13.8 °C 1026.6 in /  34760.7 hPa West 3.2 mph /  5.1 km/h 9.7 mph /  15.6 km/h 91 % 0.0 in /  0 mm
23:45 8.6 °F /  -13 °C 7.4 °F /  -13.7 °C 1026.6 in /  34760.7 hPa SW 4.7 mph /  7.6 km/h 8.0 mph /  12.9 km/h 92 % 0.0 in /  0 mm
23:51 8.5 °F /  -13.1 °C 7.3 °F /  -13.7 °C 1026.6 in /  34760.7 hPa WSW 6.4 mph /  10.3 km/h 11.3 mph /  18.2 km/h 92 % 0.0 in /  0 mm
23:57 8.4 °F /  -13.1 °C 7.2 °F /  -13.8 °C 1026.6 in /  34760.7 hPa SW 1.4 mph /  2.3 km/h 6.4 mph /  10.3 km/h 92 % 0.0 in /  0 mm
Meteo18
Compliments of Weather Underground - 4 mb

Script developed by  Jim McMurry - jmcmurry@mwt.net Adapted for the template by  Wim van der Kuil - Leuven-Template.eu

You find our weather info also at:

European Weather Network

Weather Underground

Equipment we use:

Weather-station
Davis Vue

Weather-program
Meteobridge

Weather-server
Raspberry PI 2 B+

Provider
1 and 1

Davis Vue

Meteobridge

Raspberry PI 2 B+

1 and 1